Time;durP1;ratioP1;P1;durP2;ratioP2;P2;SDS_P1;SDS_P2;PMS_P1;PMS_P2;Temp;Humidity;BMP_temperature;BMP_pressure;BME280_temperature;BME280_humidity;BME280_pressure;Samples;Min_cycle;Max_cycle;Signal;HPM_P1;HPM_P2
2023/08/31 00:07:34;;;;;;;9.40;2.33;;;;;;;24.62;100.00;100764.13;20939262;28;20739;-74
2023/08/31 00:17:58;;;;;;;11.15;2.35;;;;;;;24.59;100.00;100769.69;20986933;28;20057;-74
2023/08/31 00:28:22;;;;;;;8.70;2.40;;;;;;;24.55;100.00;100772.56;20904321;28;20042;-74
2023/08/31 00:38:44;;;;;;;6.82;1.85;;;;;;;24.27;100.00;100770.16;20880859;28;20106;-73
2023/08/31 00:49:09;;;;;;;8.52;2.15;;;;;;;24.30;100.00;100761.03;20935790;28;20126;-74
2023/08/31 00:59:32;;;;;;;6.80;2.13;;;;;;;24.21;100.00;100773.97;20950543;28;20072;-73
2023/08/31 01:10:04;;;;;;;5.38;1.50;;;;;;;24.30;100.00;100778.09;20937290;28;20052;-74
2023/08/31 01:20:35;;;;;;;14.50;2.83;;;;;;;24.20;100.00;100782.13;20965767;28;20045;-74
2023/08/31 01:31:05;;;;;;;9.90;2.42;;;;;;;24.35;100.00;100784.19;20957928;28;20097;-73
2023/08/31 01:41:31;;;;;;;12.73;2.22;;;;;;;24.41;100.00;100783.97;20978651;28;20528;-74
2023/08/31 01:51:56;;;;;;;9.20;1.90;;;;;;;24.25;100.00;100793.59;20926616;28;20053;-73
2023/08/31 02:02:19;;;;;;;11.60;2.30;;;;;;;24.27;100.00;100807.91;20892788;28;20049;-74
2023/08/31 02:12:43;;;;;;;9.93;2.53;;;;;;;24.38;100.00;100797.56;20896562;28;20417;-73
2023/08/31 02:23:05;;;;;;;9.70;1.90;;;;;;;24.33;100.00;100788.78;20940133;28;20056;-73
2023/08/31 02:33:31;;;;;;;8.48;2.53;;;;;;;24.32;100.00;100789.72;20859192;28;20160;-75
2023/08/31 02:43:54;;;;;;;9.38;2.10;;;;;;;24.01;100.00;100787.34;20929847;28;20052;-73
2023/08/31 02:54:19;;;;;;;8.00;2.00;;;;;;;24.11;100.00;100798.63;20934815;28;20044;-74
2023/08/31 03:04:41;;;;;;;11.65;2.83;;;;;;;24.07;100.00;100799.72;20894752;28;20049;-73
2023/08/31 03:15:07;;;;;;;10.57;2.53;;;;;;;24.09;100.00;100819.41;20918587;28;20708;-74
2023/08/31 03:25:29;;;;;;;9.85;1.95;;;;;;;23.95;100.00;100829.84;20906147;28;20118;-74
2023/08/31 03:35:53;;;;;;;7.75;2.38;;;;;;;23.96;100.00;100842.41;20905142;28;20049;-74
2023/08/31 03:46:16;;;;;;;14.77;2.83;;;;;;;23.98;100.00;100859.38;20919377;28;20049;-74
2023/08/31 03:56:40;;;;;;;9.63;2.25;;;;;;;23.94;100.00;100864.03;20945847;28;20048;-74
2023/08/31 04:07:03;;;;;;;8.55;1.80;;;;;;;23.97;100.00;100869.28;20927041;28;20412;-74
2023/08/31 04:17:29;;;;;;;9.10;2.30;;;;;;;24.29;100.00;100878.88;20934667;28;20135;-74
2023/08/31 04:27:52;;;;;;;8.77;2.47;;;;;;;24.53;100.00;100906.75;20947930;28;20383;-74
2023/08/31 04:38:16;;;;;;;7.25;1.77;;;;;;;25.06;100.00;100906.41;20925772;28;20538;-74
2023/08/31 04:48:39;;;;;;;9.27;1.65;;;;;;;25.58;100.00;100902.38;20918629;28;20056;-74
2023/08/31 04:59:04;;;;;;;10.43;1.80;;;;;;;26.26;100.00;100911.91;20967609;28;20041;-73
2023/08/31 05:09:26;;;;;;;6.70;1.70;;;;;;;26.96;100.00;100907.59;20927779;28;20493;-74
2023/08/31 05:19:50;;;;;;;5.65;1.30;;;;;;;27.81;100.00;100915.88;20913801;28;20041;-74
2023/08/31 05:30:13;;;;;;;10.57;2.10;;;;;;;28.49;100.00;100916.66;20939725;28;20091;-74
2023/08/31 05:40:37;;;;;;;6.65;2.22;;;;;;;29.23;100.00;100928.69;20923990;28;20049;-74
2023/08/31 05:51:00;;;;;;;6.35;1.65;;;;;;;29.70;100.00;100941.31;20928928;28;20060;-74
2023/08/31 06:01:25;;;;;;;6.25;1.50;;;;;;;30.28;91.13;100937.72;20911296;28;20049;-74
2023/08/31 06:11:47;;;;;;;8.02;1.83;;;;;;;31.46;80.53;100935.31;20958902;28;20056;-74
2023/08/31 06:22:11;;;;;;;7.78;2.08;;;;;;;32.10;71.54;100928.09;20974666;28;20049;-74
2023/08/31 06:32:34;;;;;;;8.02;1.90;;;;;;;32.59;68.48;100930.06;20914195;28;20055;-74
2023/08/31 06:42:58;;;;;;;7.40;2.30;;;;;;;32.96;63.18;100939.16;20913474;28;20087;-74
2023/08/31 06:53:21;;;;;;;8.27;2.50;;;;;;;33.01;60.88;100943.31;20951948;28;20056;-74
2023/08/31 07:03:45;;;;;;;7.97;2.00;;;;;;;33.53;58.96;100958.56;20921292;28;20057;-74
2023/08/31 07:14:08;;;;;;;5.40;1.88;;;;;;;33.16;57.45;100961.31;20906217;28;20068;-74
2023/08/31 07:24:32;;;;;;;8.57;1.92;;;;;;;33.26;55.39;100960.66;20935853;28;20084;-74
2023/08/31 07:34:54;;;;;;;10.00;2.03;;;;;;;33.20;53.29;100971.09;20935724;28;20049;-74
2023/08/31 07:45:18;;;;;;;9.05;2.03;;;;;;;33.70;50.71;100993.72;20904943;28;20107;-74
2023/08/31 07:55:41;;;;;;;11.40;2.47;;;;;;;34.09;49.20;100997.97;20922738;28;20053;-74
2023/08/31 08:06:05;;;;;;;8.23;2.28;;;;;;;34.32;48.44;101018.13;20883047;28;20062;-74
2023/08/31 08:16:27;;;;;;;8.07;1.98;;;;;;;35.02;45.27;101017.91;20900718;28;20049;-74
2023/08/31 08:26:51;;;;;;;8.15;1.85;;;;;;;35.00;43.32;101017.16;20920171;28;20053;-74
2023/08/31 08:37:14;;;;;;;8.90;2.30;;;;;;;35.06;43.03;101016.66;20898223;28;20448;-75
2023/08/31 08:47:38;;;;;;;12.07;2.63;;;;;;;35.54;44.06;101004.31;20921487;28;20092;-74
2023/08/31 08:58:01;;;;;;;8.73;2.20;;;;;;;35.96;43.22;101007.19;20948064;28;20607;-75
2023/08/31 09:08:30;;;;;;;12.70;2.38;;;;;;;36.15;44.41;101014.69;20898711;28;20048;-75
2023/08/31 09:18:52;;;;;;;6.57;1.95;;;;;;;35.71;44.57;101015.81;20912972;28;20059;-75
2023/08/31 09:29:17;;;;;;;9.40;2.03;;;;;;;36.10;43.86;101028.84;20909243;28;20056;-75
2023/08/31 09:39:40;;;;;;;10.05;2.83;;;;;;;36.58;43.80;101036.53;20912458;28;20052;-75
2023/08/31 09:50:06;;;;;;;6.05;1.88;;;;;;;36.34;43.33;101026.72;20903084;28;20052;-75
2023/08/31 10:00:31;;;;;;;10.40;1.95;;;;;;;36.95;42.93;101004.72;20918148;28;20559;-74
2023/08/31 10:10:55;;;;;;;8.02;2.30;;;;;;;37.27;41.93;101020.22;20906150;28;20417;-75
2023/08/31 10:21:18;;;;;;;8.07;2.10;;;;;;;37.38;41.19;101031.09;20873511;28;20053;-75
2023/08/31 10:31:51;;;;;;;7.50;2.10;;;;;;;37.17;40.61;101031.19;20908028;28;20500;-76
2023/08/31 10:42:13;;;;;;;7.13;2.30;;;;;;;36.74;40.12;101020.44;20901030;28;20076;-75
2023/08/31 10:52:45;;;;;;;9.07;2.22;;;;;;;36.52;40.11;101026.97;20924992;28;20669;-74
2023/08/31 11:03:08;;;;;;;7.32;2.60;;;;;;;36.37;40.70;101021.94;20897856;28;20048;-76
2023/08/31 11:13:32;;;;;;;5.82;2.30;;;;;;;35.72;40.93;101025.75;20881753;28;20588;-75
2023/08/31 11:23:58;;;;;;;7.47;2.15;;;;;;;35.58;40.63;101023.31;20898333;28;20045;-75
2023/08/31 11:34:23;;;;;;;9.13;2.40;;;;;;;35.50;40.91;101038.56;20935175;28;20049;-74
2023/08/31 11:44:46;;;;;;;6.20;2.30;;;;;;;35.83;41.14;101025.75;20953647;28;20174;-74
2023/08/31 11:55:14;;;;;;;6.22;1.90;;;;;;;36.09;39.87;101028.97;20973581;28;20049;-75
2023/08/31 12:05:47;;;;;;;8.05;2.22;;;;;;;35.73;39.95;101011.03;20897304;28;20053;-74
2023/08/31 12:16:17;;;;;;;7.05;2.47;;;;;;;35.58;41.16;101005.81;20895260;28;20048;-75
2023/08/31 12:26:40;;;;;;;6.70;2.03;;;;;;;35.08;42.68;101014.66;20992730;28;20149;-74
2023/08/31 12:37:05;;;;;;;6.40;2.28;;;;;;;34.84;43.22;101001.09;20904436;28;20448;-75
2023/08/31 12:47:27;;;;;;;9.88;2.60;;;;;;;34.60;42.43;101005.78;20915066;28;20139;-74
2023/08/31 12:57:51;;;;;;;12.02;2.90;;;;;;;34.45;42.55;101010.66;20915028;28;20087;-74
2023/08/31 13:08:14;;;;;;;6.53;1.80;;;;;;;34.28;42.12;100989.19;20940138;28;20049;-74
2023/08/31 13:18:37;;;;;;;7.30;2.20;;;;;;;34.15;41.36;101004.84;20917627;28;20040;-74
2023/08/31 13:29:00;;;;;;;9.75;2.60;;;;;;;33.99;41.76;101008.81;20908678;28;20094;-74
2023/08/31 13:39:25;;;;;;;9.30;2.47;;;;;;;33.76;41.11;101004.22;20898850;28;20049;-74
2023/08/31 13:49:47;;;;;;;4.75;1.98;;;;;;;33.62;40.56;100991.56;20899178;28;20102;-75
2023/08/31 14:00:13;;;;;;;8.93;2.00;;;;;;;33.70;38.10;100987.34;20930441;28;20045;-74
2023/08/31 14:10:40;;;;;;;7.00;2.08;;;;;;;33.79;38.54;100979.34;20901804;28;20049;-74
2023/08/31 14:21:04;;;;;;;5.97;2.00;;;;;;;33.81;39.52;100969.13;20925500;28;20041;-74
2023/08/31 14:31:27;;;;;;;9.70;2.70;;;;;;;33.91;40.94;100963.81;20989978;28;20479;-74
2023/08/31 14:42:07;;;;;;;6.95;2.03;;;;;;;33.32;43.42;100988.44;21051954;27;20933;-73
2023/08/31 14:52:29;;;;;;;8.57;2.67;;;;;;;32.65;43.83;100995.25;21066845;28;20126;-73
2023/08/31 15:02:53;;;;;;;10.18;2.15;;;;;;;32.18;42.91;101013.19;21030275;28;20079;-73
2023/08/31 15:13:16;;;;;;;8.75;2.45;;;;;;;31.80;42.59;101004.91;21060546;28;20420;-73
2023/08/31 15:23:41;;;;;;;6.10;1.95;;;;;;;31.51;42.49;101009.59;21029204;28;20056;-73
2023/08/31 15:34:03;;;;;;;8.15;2.53;;;;;;;31.21;43.87;101011.66;21056338;28;20121;-73
2023/08/31 15:44:27;;;;;;;8.85;2.72;;;;;;;31.06;45.67;101024.44;21039533;28;20048;-73
2023/08/31 15:54:50;;;;;;;10.50;2.50;;;;;;;30.71;50.31;101007.63;20976601;28;20106;-74
2023/08/31 16:05:14;;;;;;;15.32;2.63;;;;;;;30.65;54.27;101009.88;20969325;28;20504;-73
2023/08/31 16:15:37;;;;;;;12.07;2.78;;;;;;;30.43;57.93;101013.94;21000562;28;20040;-72
2023/08/31 16:26:01;;;;;;;10.90;2.47;;;;;;;30.17;59.02;101001.06;20969371;28;20040;-73
2023/08/31 16:36:24;;;;;;;11.75;2.95;;;;;;;29.93;59.13;101014.31;20956268;28;20449;-73
2023/08/31 16:46:49;;;;;;;12.98;2.83;;;;;;;29.77;58.65;101013.47;20973701;28;20748;-73
2023/08/31 16:57:11;;;;;;;9.85;3.03;;;;;;;29.48;62.89;101025.19;20941953;28;20082;-73
2023/08/31 17:07:36;;;;;;;10.02;2.72;;;;;;;29.34;65.58;101036.03;20963125;28;20072;-73
2023/08/31 17:17:58;;;;;;;12.88;6.10;;;;;;;29.13;71.75;101041.72;20958388;28;20059;-73
2023/08/31 17:28:22;;;;;;;11.02;2.95;;;;;;;29.04;74.04;101049.50;20973334;28;20686;-74
2023/08/31 17:38:45;;;;;;;12.95;3.08;;;;;;;28.83;78.50;101062.44;20963222;28;20106;-73
2023/08/31 17:49:09;;;;;;;13.00;3.75;;;;;;;28.72;83.54;101086.59;20980277;28;20041;-73
2023/08/31 17:59:31;;;;;;;11.27;3.17;;;;;;;28.60;86.16;101073.69;20963560;28;20424;-73
2023/08/31 18:09:56;;;;;;;11.05;3.63;;;;;;;28.47;90.28;101104.22;20980022;28;20131;-74
2023/08/31 18:20:23;;;;;;;17.17;6.72;;;;;;;28.39;92.68;101111.03;20981461;28;20135;-73
2023/08/31 18:30:56;;;;;;;16.27;6.57;;;;;;;28.30;96.87;101101.50;20948004;28;20060;-74
2023/08/31 18:41:18;;;;;;;18.17;4.20;;;;;;;28.13;99.34;101117.78;20950812;28;20491;-75
2023/08/31 18:51:43;;;;;;;13.80;4.47;;;;;;;27.97;100.00;101114.97;20954681;28;20055;-74
2023/08/31 19:02:06;;;;;;;10.43;2.53;;;;;;;27.83;100.00;101119.34;20987154;28;20105;-73
2023/08/31 19:12:30;;;;;;;13.05;3.22;;;;;;;27.77;100.00;101124.09;20965025;28;20044;-74
2023/08/31 19:22:52;;;;;;;10.55;2.83;;;;;;;27.68;100.00;101118.28;20988222;28;20072;-74
2023/08/31 19:33:16;;;;;;;9.07;2.83;;;;;;;27.56;100.00;101119.78;20949406;28;20454;-74
2023/08/31 19:43:39;;;;;;;12.43;3.20;;;;;;;27.55;100.00;101123.44;20989171;28;20127;-74
2023/08/31 19:54:04;;;;;;;10.18;2.30;;;;;;;27.37;100.00;101122.44;20981898;28;20041;-73
2023/08/31 20:04:27;;;;;;;12.65;2.78;;;;;;;27.34;100.00;101119.00;20960863;28;20072;-74
2023/08/31 20:14:52;;;;;;;11.30;2.50;;;;;;;27.21;100.00;101115.13;20892220;28;20042;-74
2023/08/31 20:25:15;;;;;;;11.35;3.00;;;;;;;26.95;100.00;101103.69;20923851;28;20531;-74
2023/08/31 20:35:40;;;;;;;11.52;2.75;;;;;;;26.83;100.00;101114.19;21013265;28;20385;-74
2023/08/31 20:46:07;;;;;;;14.70;3.15;;;;;;;26.67;100.00;101129.38;20980187;28;20496;-74
2023/08/31 20:56:32;;;;;;;12.52;3.22;;;;;;;26.52;100.00;101107.44;20987130;28;20141;-74
2023/08/31 21:06:55;;;;;;;12.70;3.60;;;;;;;26.39;100.00;101114.34;20933112;28;20048;-74
2023/08/31 21:17:20;;;;;;;10.40;3.22;;;;;;;26.12;100.00;101121.81;20956902;28;20057;-74
2023/08/31 21:27:43;;;;;;;8.80;2.85;;;;;;;25.99;100.00;101117.84;20915041;28;20417;-73
2023/08/31 21:38:09;;;;;;;11.75;3.33;;;;;;;25.96;100.00;101107.19;20971541;28;20060;-73
2023/08/31 21:48:32;;;;;;;9.48;2.90;;;;;;;25.77;100.00;101098.97;20944389;28;20056;-73
2023/08/31 21:58:57;;;;;;;10.55;2.90;;;;;;;25.74;100.00;101090.09;21003096;28;20056;-73
2023/08/31 22:09:20;;;;;;;7.13;2.38;;;;;;;25.57;100.00;101098.91;20979547;28;20049;-74
2023/08/31 22:19:44;;;;;;;6.93;3.13;;;;;;;25.53;100.00;101102.66;20991856;28;20488;-74
2023/08/31 22:30:08;;;;;;;10.60;3.45;;;;;;;25.38;100.00;101087.06;20982389;28;20132;-74
2023/08/31 22:40:32;;;;;;;7.72;2.92;;;;;;;25.37;100.00;101088.00;20967291;28;20053;-74
2023/08/31 22:51:03;;;;;;;10.20;2.42;;;;;;;25.38;100.00;101089.75;20931282;28;20041;-74
2023/08/31 23:01:28;;;;;;;8.80;2.88;;;;;;;25.29;100.00;101085.59;20962416;28;20053;-73
2023/08/31 23:11:51;;;;;;;9.05;2.70;;;;;;;25.17;100.00;101087.91;21002495;28;20492;-74
2023/08/31 23:22:15;;;;;;;7.75;2.53;;;;;;;25.05;100.00;101077.56;20959416;28;20163;-73
2023/08/31 23:32:37;;;;;;;8.45;2.58;;;;;;;24.94;100.00;101069.91;20977361;28;20044;-74
2023/08/31 23:43:02;;;;;;;7.15;2.65;;;;;;;24.86;100.00;101058.47;20990253;28;20080;-73
2023/08/31 23:53:24;;;;;;;8.70;2.35;;;;;;;24.89;100.00;101058.34;20973068;28;20056;-74
